• Join FlightAware (Why Join?)
  • Login
  • US Flag 
09:00PM EDT


 

Airport Tracker/Info


-or-


 

Live Flight TrackerFlight Track Log ✈ SWA2383 ✈ 04-May-2013 ✈ KMCI - KSTL

Flight Track Log - Related Links

Times and Time Zones

All times are in EDT time to prevent confusion due to time zone crossing. See the SWA2383 flight status page for this flight to view local times or setup timezone preferences in your user account.

Time Position Orientation Groundspeed Altitude Reporting Facility
EDT Latitude Longitude Course Direction KTS MPH feet Rate Location/Type
11:30AM 39.3167 -94.7167 38° Northeast 160 184 1,700  Level Kansas City TRACON
11:31AM 39.3500 -94.6833 38° Northeast 193 222 4,200 2,640 Climbing Kansas City TRACON
11:31AM 39.3617 -94.6744 31° Northeast 194 223 4,800 2,760 Climbing Kansas City Center
11:32AM 39.3344 -94.6053 117° Southeast 233 268 7,800 2,820 Climbing Kansas City Center
11:34AM 39.2964 -94.5300 123° Southeast 257 296 10,700 3,360 Climbing Kansas City Center
11:35AM 39.2431 -94.4247 123° Southeast 311 358 14,800 4,020 Climbing Kansas City Center
11:36AM 39.1967 -94.3314 123° Southeast 321 369 19,000 3,840 Climbing Kansas City Center
11:37AM 39.1397 -94.2181 123° Southeast 336 387 22,700 3,240 Climbing Kansas City Center
11:38AM 39.0933 -94.1147 120° Southeast 346 398 25,700 2,940 Climbing Kansas City Center
11:39AM 39.0808 -93.9767 97° East 347 399 28,800 1,560 Climbing Kansas City Center
11:40AM 39.0606 -93.8575 102° East 357 411 29,000 60 Climbing Kansas City Center
11:41AM 39.0403 -93.7353 102° East 365 420 29,000  Level Kansas City Center
11:42AM 39.0167 -93.5939 102° East 362 417 29,000  Level Kansas City Center
11:43AM 38.9964 -93.4744 102° East 363 418 29,000  Level Kansas City Center
11:44AM 38.9744 -93.3494 103° East 360 414 29,000  Level Kansas City Center
11:45AM 38.9542 -93.2211 101° East 362 417 29,000  Level Kansas City Center
11:46AM 38.9283 -93.0711 102° East 358 412 29,000 -180 Level Kansas City Center
11:47AM 38.9069 -92.9472 102° East 356 410 28,700 -660 Descending Kansas City Center
11:48AM 38.8850 -92.8219 103° East 357 411 27,700 -1,020 Descending Kansas City Center
11:49AM 38.8625 -92.6961 103° East 359 413 26,700 -1,020 Descending Kansas City Center
11:50AM 38.8414 -92.5706 102° East 359 413 25,700 -1,020 Descending Kansas City Center
11:51AM 38.8189 -92.4472 103° East 356 410 24,700 -840 Descending Kansas City Center
11:52AM 38.7969 -92.3233 103° East 354 407 24,000 -360 Descending Kansas City Center
11:53AM 38.7761 -92.2036 103° East 350 403 24,000  Level Kansas City Center
11:54AM 38.7544 -92.0839 103° East 346 398 24,000  Level Kansas City Center
11:55AM 38.7325 -91.9642 103° East 344 396 24,000  Level Kansas City Center
11:56AM 38.7097 -91.8428 103° East 346 398 24,000  Level Kansas City Center
11:57AM 38.6903 -91.7208 102° East 348 400 24,000 -300 Level Kansas City Center
11:58AM 38.6933 -91.5700 88° East 351 404 23,400 -540 Descending Kansas City Center
11:59AM 38.6925 -91.4469 90° East 346 398 23,000 -1,080 Descending Kansas City Center
12:00PM 38.6931 -91.3389 90° East 332 382 21,200 -2,520 Descending Kansas City Center
12:01PM 38.6928 -91.2275 90° East 318 366 17,900 -3,720 Descending Kansas City Center
12:02PM 38.6953 -91.1083 88° East 330 380 13,600 -4,140 Descending Kansas City Center
12:03PM 38.7414 -90.9978 62° Northeast 349 402 9,500 -2,640 Descending Kansas City Center
12:04PM 38.7706 -90.8989 69° East 303 349 8,200 -1,500 Descending Kansas City Center
12:05PM 38.7883 -90.7947 78° East 257 296 6,500 -1,560 Descending Kansas City Center
12:06PM 38.8008 -90.7128 79° East 239 275 5,100 -1,320 Descending Kansas City Center
12:07PM 38.8142 -90.6331 78° East 233 268 3,800 -1,080 Descending Kansas City Center
12:08PM 38.8258 -90.5572 79° East 225 259 3,000 -420 Descending Kansas City Center
12:09PM 38.8156 -90.4967 102° East 192 221 3,000 -480 Level Kansas City Center
12:10PM 38.7922 -90.4489 122° Southeast 170 196 2,100 -840 Descending Kansas City Center
12:11PM 38.7733 -90.4094 122° Southeast 149 171 1,400 -780 Descending Kansas City Center
12:12PM 38.7544 -90.3703 122° Southeast 135 155 600 -840 Descending Kansas City Center
12:14PM 38.7487 -90.3700 123° Southeast  Level Estimated
12:21PM 38.7487 -90.3700 333° Northwest  Level Estimated